Portada
METAR-TAF:

METAR-TAF

Aeroports :

Ocala International Airport (Jim Taylor Field)

Ocala, Florida, Estats Units d'Amèrica

latitud: 29-10N, longitud: 082-13W, altitud: 27 m

Observació

L'informe es va fer fa 49 minuts, a les 21:51 UTC
Vent 11 kt del Est/Nord-Est amb ràfegues de 21 kt
Temperatura 32°C
Humitat 43%
Pressió 1018 hPa
Visibilitat: 16.1 km
Cel clar

METAR: KOCF 192151Z 07011G21KT 10SM CLR 32/18 A3006 RMK AO2 SLP180 T03170183 PNO $

Hora: 18:40 (22:40 UTC)


TAF: manca

Observacions i pronòstics meteorològics de més de 4000 aeroports (METAR i TAF).

Les estacions disponibles són els punts grocs i vermells al mapa.

Posi el ratolí al punt desitjat per veure el nom de l'estació.

Feu clic per veure les observacions i els pronòstics meteorològics.

Per canviar el mapa: feu clic els botons verds amb una creu de color negre per apropar; al botó verd amb un guió per allunyar la imatge; o en les fletxes verdes per a mapes adjacents.


METAR-TAF: